sensor_id;sensor_type;location;lat;lon;timestamp;pressure;altitude;pressure_sealevel;temperature;humidity
77147;BME280;66121;52.584;9.694;2024-01-06T00:00:16;99763.88;;;2.45;100.00
77147;BME280;66121;52.584;9.694;2024-01-06T00:02:41;99776.78;;;2.48;100.00
77147;BME280;66121;52.584;9.694;2024-01-06T00:05:07;99774.41;;;2.46;100.00
77147;BME280;66121;52.584;9.694;2024-01-06T00:07:32;99773.19;;;2.44;100.00
77147;BME280;66121;52.584;9.694;2024-01-06T00:09:58;99773.44;;;2.39;100.00
77147;BME280;66121;52.584;9.694;2024-01-06T00:12:23;99778.38;;;2.49;100.00
77147;BME280;66121;52.584;9.694;2024-01-06T00:14:48;99776.78;;;2.48;100.00
77147;BME280;66121;52.584;9.694;2024-01-06T00:17:14;99775.38;;;2.38;100.00
77147;BME280;66121;52.584;9.694;2024-01-06T00:19:39;99786.44;;;2.45;100.00
77147;BME280;66121;52.584;9.694;2024-01-06T00:22:05;99777.84;;;2.43;100.00
77147;BME280;66121;52.584;9.694;2024-01-06T00:24:30;99778.16;;;2.42;100.00
77147;BME280;66121;52.584;9.694;2024-01-06T00:26:56;99784.94;;;2.48;100.00
77147;BME280;66121;52.584;9.694;2024-01-06T00:29:21;99782.38;;;2.39;100.00
77147;BME280;66121;52.584;9.694;2024-01-06T00:31:46;99795.16;;;2.51;100.00
77147;BME280;66121;52.584;9.694;2024-01-06T00:34:11;99796.44;;;2.57;100.00
77147;BME280;66121;52.584;9.694;2024-01-06T00:36:37;99791.38;;;2.55;100.00
77147;BME280;66121;52.584;9.694;2024-01-06T00:39:02;99789.97;;;2.46;100.00
77147;BME280;66121;52.584;9.694;2024-01-06T00:41:29;99797.94;;;2.54;100.00
77147;BME280;66121;52.584;9.694;2024-01-06T00:43:54;99798.66;;;2.51;100.00
77147;BME280;66121;52.584;9.694;2024-01-06T00:46:19;99807.81;;;2.59;100.00
77147;BME280;66121;52.584;9.694;2024-01-06T00:48:45;99804.88;;;2.52;100.00
77147;BME280;66121;52.584;9.694;2024-01-06T00:51:10;99789.16;;;2.45;100.00
77147;BME280;66121;52.584;9.694;2024-01-06T00:53:35;99794.34;;;2.50;100.00
77147;BME280;66121;52.584;9.694;2024-01-06T00:56:01;99789.84;;;2.42;100.00
77147;BME280;66121;52.584;9.694;2024-01-06T00:58:26;99810.00;;;2.53;100.00
77147;BME280;66121;52.584;9.694;2024-01-06T01:00:52;99796.78;;;2.40;100.00
77147;BME280;66121;52.584;9.694;2024-01-06T01:03:17;99810.94;;;2.45;100.00
77147;BME280;66121;52.584;9.694;2024-01-06T01:05:42;99817.19;;;2.46;100.00
77147;BME280;66121;52.584;9.694;2024-01-06T01:08:08;99819.22;;;2.49;100.00
77147;BME280;66121;52.584;9.694;2024-01-06T01:10:33;99825.34;;;2.46;100.00
77147;BME280;66121;52.584;9.694;2024-01-06T01:12:58;99829.63;;;2.47;100.00
77147;BME280;66121;52.584;9.694;2024-01-06T01:15:24;99826.22;;;2.50;100.00
77147;BME280;66121;52.584;9.694;2024-01-06T01:17:49;99836.06;;;2.54;100.00
77147;BME280;66121;52.584;9.694;2024-01-06T01:20:14;99831.34;;;2.51;100.00
77147;BME280;66121;52.584;9.694;2024-01-06T01:22:40;99836.69;;;2.48;100.00
77147;BME280;66121;52.584;9.694;2024-01-06T01:25:05;99837.03;;;2.46;100.00
77147;BME280;66121;52.584;9.694;2024-01-06T01:27:35;99843.19;;;2.43;100.00
77147;BME280;66121;52.584;9.694;2024-01-06T01:30:01;99836.75;;;2.36;100.00
77147;BME280;66121;52.584;9.694;2024-01-06T01:32:26;99848.63;;;2.43;100.00
77147;BME280;66121;52.584;9.694;2024-01-06T01:34:51;99846.34;;;2.45;100.00
77147;BME280;66121;52.584;9.694;2024-01-06T01:37:17;99849.31;;;2.40;100.00
77147;BME280;66121;52.584;9.694;2024-01-06T01:39:42;99843.63;;;2.45;100.00
77147;BME280;66121;52.584;9.694;2024-01-06T01:42:07;99851.41;;;2.47;100.00
77147;BME280;66121;52.584;9.694;2024-01-06T01:44:33;99850.97;;;2.45;100.00
77147;BME280;66121;52.584;9.694;2024-01-06T01:46:58;99846.84;;;2.35;100.00
77147;BME280;66121;52.584;9.694;2024-01-06T01:49:24;99838.31;;;2.37;100.00
77147;BME280;66121;52.584;9.694;2024-01-06T01:51:50;99858.28;;;2.41;100.00
77147;BME280;66121;52.584;9.694;2024-01-06T01:54:16;99858.72;;;2.43;100.00
77147;BME280;66121;52.584;9.694;2024-01-06T01:56:42;99857.47;;;2.40;100.00
77147;BME280;66121;52.584;9.694;2024-01-06T01:59:12;99856.78;;;2.43;100.00
77147;BME280;66121;52.584;9.694;2024-01-06T02:01:41;99863.28;;;2.39;100.00
77147;BME280;66121;52.584;9.694;2024-01-06T02:04:08;99857.47;;;2.40;100.00
77147;BME280;66121;52.584;9.694;2024-01-06T02:06:34;99866.78;;;2.39;100.00
77147;BME280;66121;52.584;9.694;2024-01-06T02:09:00;99861.78;;;2.41;100.00
77147;BME280;66121;52.584;9.694;2024-01-06T02:11:25;99860.09;;;2.37;100.00
77147;BME280;66121;52.584;9.694;2024-01-06T02:13:51;99862.22;;;2.43;100.00
77147;BME280;66121;52.584;9.694;2024-01-06T02:16:16;99863.38;;;2.42;100.00
77147;BME280;66121;52.584;9.694;2024-01-06T02:18:42;99868.13;;;2.45;100.00
77147;BME280;66121;52.584;9.694;2024-01-06T02:21:07;99876.53;;;2.40;100.00
77147;BME280;66121;52.584;9.694;2024-01-06T02:23:35;99873.63;;;2.33;100.00
77147;BME280;66121;52.584;9.694;2024-01-06T02:26:01;99872.31;;;2.43;100.00
77147;BME280;66121;52.584;9.694;2024-01-06T02:28:26;99882.34;;;2.39;100.00
77147;BME280;66121;52.584;9.694;2024-01-06T02:30:52;99879.06;;;2.33;100.00
77147;BME280;66121;52.584;9.694;2024-01-06T02:33:17;99879.88;;;2.34;100.00
77147;BME280;66121;52.584;9.694;2024-01-06T02:35:47;99878.28;;;2.33;100.00
77147;BME280;66121;52.584;9.694;2024-01-06T02:38:13;99885.75;;;2.36;100.00
77147;BME280;66121;52.584;9.694;2024-01-06T02:40:38;99886.88;;;2.35;100.00
77147;BME280;66121;52.584;9.694;2024-01-06T02:43:04;99882.22;;;2.35;100.00
77147;BME280;66121;52.584;9.694;2024-01-06T02:45:29;99895.59;;;2.40;100.00
77147;BME280;66121;52.584;9.694;2024-01-06T02:47:54;99888.84;;;2.34;100.00
77147;BME280;66121;52.584;9.694;2024-01-06T02:50:20;99892.00;;;2.36;100.00
77147;BME280;66121;52.584;9.694;2024-01-06T02:52:45;99883.88;;;2.24;100.00
77147;BME280;66121;52.584;9.694;2024-01-06T02:55:11;99898.00;;;2.30;100.00
77147;BME280;66121;52.584;9.694;2024-01-06T02:57:37;99897.69;;;2.31;100.00
77147;BME280;66121;52.584;9.694;2024-01-06T03:00:03;99905.16;;;2.34;100.00
77147;BME280;66121;52.584;9.694;2024-01-06T03:02:28;99902.34;;;2.31;100.00
77147;BME280;66121;52.584;9.694;2024-01-06T03:04:54;99904.88;;;2.24;100.00
77147;BME280;66121;52.584;9.694;2024-01-06T03:07:20;99900.28;;;2.28;100.00
77147;BME280;66121;52.584;9.694;2024-01-06T03:09:45;99907.34;;;2.29;100.00
77147;BME280;66121;52.584;9.694;2024-01-06T03:12:11;99889.09;;;2.17;100.00
77147;BME280;66121;52.584;9.694;2024-01-06T03:14:37;99910.38;;;2.27;100.00
77147;BME280;66121;52.584;9.694;2024-01-06T03:17:03;99915.94;;;2.31;100.00
77147;BME280;66121;52.584;9.694;2024-01-06T03:19:29;99912.22;;;2.23;100.00
77147;BME280;66121;52.584;9.694;2024-01-06T03:21:54;99920.84;;;2.25;100.00
77147;BME280;66121;52.584;9.694;2024-01-06T03:24:24;99917.19;;;2.33;100.00
77147;BME280;66121;52.584;9.694;2024-01-06T03:26:50;99904.75;;;2.20;100.00
77147;BME280;66121;52.584;9.694;2024-01-06T03:29:15;99915.31;;;2.22;100.00
77147;BME280;66121;52.584;9.694;2024-01-06T03:31:45;99926.28;;;2.25;100.00
77147;BME280;66121;52.584;9.694;2024-01-06T03:34:10;99911.91;;;2.13;100.00
77147;BME280;66121;52.584;9.694;2024-01-06T03:36:37;99920.50;;;2.27;100.00
77147;BME280;66121;52.584;9.694;2024-01-06T03:39:02;99923.47;;;2.22;100.00
77147;BME280;66121;52.584;9.694;2024-01-06T03:41:28;99934.13;;;2.27;100.00
77147;BME280;66121;52.584;9.694;2024-01-06T03:43:53;99941.81;;;2.25;100.00
77147;BME280;66121;52.584;9.694;2024-01-06T03:46:18;99944.00;;;2.19;100.00
77147;BME280;66121;52.584;9.694;2024-01-06T03:48:43;99941.59;;;2.18;100.00
77147;BME280;66121;52.584;9.694;2024-01-06T03:51:10;99943.78;;;2.12;100.00
77147;BME280;66121;52.584;9.694;2024-01-06T03:53:35;99952.25;;;2.23;100.00
77147;BME280;66121;52.584;9.694;2024-01-06T03:56:02;99952.50;;;2.18;100.00
77147;BME280;66121;52.584;9.694;2024-01-06T03:58:28;99954.78;;;2.16;100.00
77147;BME280;66121;52.584;9.694;2024-01-06T04:00:53;99955.69;;;2.08;100.00
77147;BME280;66121;52.584;9.694;2024-01-06T04:03:18;99926.41;;;1.89;100.00
77147;BME280;66121;52.584;9.694;2024-01-06T04:05:43;99950.22;;;2.20;100.00
77147;BME280;66121;52.584;9.694;2024-01-06T04:08:09;99950.13;;;2.16;100.00
77147;BME280;66121;52.584;9.694;2024-01-06T04:10:34;99952.41;;;2.14;100.00
77147;BME280;66121;52.584;9.694;2024-01-06T04:13:00;99962.13;;;2.15;100.00
77147;BME280;66121;52.584;9.694;2024-01-06T04:15:25;99940.59;;;2.10;100.00
77147;BME280;66121;52.584;9.694;2024-01-06T04:17:51;99971.09;;;2.16;100.00
77147;BME280;66121;52.584;9.694;2024-01-06T04:20:17;99973.38;;;2.14;100.00
77147;BME280;66121;52.584;9.694;2024-01-06T04:22:43;99974.75;;;2.08;100.00
77147;BME280;66121;52.584;9.694;2024-01-06T04:25:08;99973.94;;;2.07;100.00
77147;BME280;66121;52.584;9.694;2024-01-06T04:27:33;99980.41;;;2.03;100.00
77147;BME280;66121;52.584;9.694;2024-01-06T04:30:00;99984.94;;;2.11;100.00
77147;BME280;66121;52.584;9.694;2024-01-06T04:32:25;99978.81;;;2.14;100.00
77147;BME280;66121;52.584;9.694;2024-01-06T04:34:50;99986.78;;;2.07;100.00
77147;BME280;66121;52.584;9.694;2024-01-06T04:37:16;99974.19;;;2.02;100.00
77147;BME280;66121;52.584;9.694;2024-01-06T04:39:41;99989.59;;;2.10;100.00
77147;BME280;66121;52.584;9.694;2024-01-06T04:42:06;99996.19;;;2.09;100.00
77147;BME280;66121;52.584;9.694;2024-01-06T04:44:31;100000.72;;;2.05;100.00
77147;BME280;66121;52.584;9.694;2024-01-06T04:46:57;99997.09;;;2.01;100.00
77147;BME280;66121;52.584;9.694;2024-01-06T04:49:22;100001.50;;;2.06;100.00
77147;BME280;66121;52.584;9.694;2024-01-06T04:51:48;100003.00;;;2.03;100.00
77147;BME280;66121;52.584;9.694;2024-01-06T04:54:13;99994.81;;;2.03;100.00
77147;BME280;66121;52.584;9.694;2024-01-06T04:56:39;100019.97;;;2.12;100.00
77147;BME280;66121;52.584;9.694;2024-01-06T04:59:05;100018.19;;;2.04;100.00
77147;BME280;66121;52.584;9.694;2024-01-06T05:01:30;100023.50;;;2.01;100.00
77147;BME280;66121;52.584;9.694;2024-01-06T05:03:56;100029.53;;;2.06;100.00
77147;BME280;66121;52.584;9.694;2024-01-06T05:06:23;100031.78;;;2.04;100.00
77147;BME280;66121;52.584;9.694;2024-01-06T05:08:48;100036.44;;;2.04;100.00
77147;BME280;66121;52.584;9.694;2024-01-06T05:11:14;100032.03;;;1.99;100.00
77147;BME280;66121;52.584;9.694;2024-01-06T05:13:39;100035.50;;;2.00;100.00
77147;BME280;66121;52.584;9.694;2024-01-06T05:16:05;100032.25;;;2.06;100.00
77147;BME280;66121;52.584;9.694;2024-01-06T05:18:30;100047.19;;;2.12;100.00
77147;BME280;66121;52.584;9.694;2024-01-06T05:20:56;100044.59;;;2.04;100.00
77147;BME280;66121;52.584;9.694;2024-01-06T05:23:22;100056.38;;;2.08;100.00
77147;BME280;66121;52.584;9.694;2024-01-06T05:25:47;100052.84;;;2.07;100.00
77147;BME280;66121;52.584;9.694;2024-01-06T05:28:12;100063.50;;;2.12;100.00
77147;BME280;66121;52.584;9.694;2024-01-06T05:30:38;100037.94;;;1.89;100.00
77147;BME280;66121;52.584;9.694;2024-01-06T05:33:03;100048.44;;;2.03;100.00
77147;BME280;66121;52.584;9.694;2024-01-06T05:35:29;100062.97;;;2.07;100.00
77147;BME280;66121;52.584;9.694;2024-01-06T05:37:54;100055.72;;;1.99;100.00
77147;BME280;66121;52.584;9.694;2024-01-06T05:40:20;100068.50;;;2.10;100.00
77147;BME280;66121;52.584;9.694;2024-01-06T05:42:45;100068.28;;;2.03;100.00
77147;BME280;66121;52.584;9.694;2024-01-06T05:45:11;100055.72;;;1.99;100.00
77147;BME280;66121;52.584;9.694;2024-01-06T05:47:39;100071.56;;;2.09;100.00
77147;BME280;66121;52.584;9.694;2024-01-06T05:50:05;100073.16;;;1.98;100.00
77147;BME280;66121;52.584;9.694;2024-01-06T05:52:32;100076.81;;;2.02;100.00
77147;BME280;66121;52.584;9.694;2024-01-06T05:54:58;100070.22;;;2.03;100.00
77147;BME280;66121;52.584;9.694;2024-01-06T05:57:23;100083.72;;;1.99;100.00
77147;BME280;66121;52.584;9.694;2024-01-06T05:59:49;100072.94;;;1.90;100.00
77147;BME280;66121;52.584;9.694;2024-01-06T06:02:14;100090.94;;;1.95;100.00
77147;BME280;66121;52.584;9.694;2024-01-06T06:04:39;100092.19;;;1.98;100.00
77147;BME280;66121;52.584;9.694;2024-01-06T06:07:05;100081.53;;;1.92;100.00
77147;BME280;66121;52.584;9.694;2024-01-06T06:09:30;100100.72;;;1.96;100.00
77147;BME280;66121;52.584;9.694;2024-01-06T06:11:55;100098.09;;;2.00;100.00
77147;BME280;66121;52.584;9.694;2024-01-06T06:14:21;100108.53;;;1.98;100.00
77147;BME280;66121;52.584;9.694;2024-01-06T06:16:46;100099.56;;;1.97;100.00
77147;BME280;66121;52.584;9.694;2024-01-06T06:19:13;100105.13;;;2.01;100.00
77147;BME280;66121;52.584;9.694;2024-01-06T06:21:38;100109.31;;;1.98;100.00
77147;BME280;66121;52.584;9.694;2024-01-06T06:24:04;100118.28;;;1.99;100.00
77147;BME280;66121;52.584;9.694;2024-01-06T06:26:29;100116.38;;;1.99;100.00
77147;BME280;66121;52.584;9.694;2024-01-06T06:28:55;100128.47;;;1.89;100.00
77147;BME280;66121;52.584;9.694;2024-01-06T06:31:20;100128.81;;;2.00;100.00
77147;BME280;66121;52.584;9.694;2024-01-06T06:33:45;100129.16;;;1.99;100.00
77147;BME280;66121;52.584;9.694;2024-01-06T06:36:11;100141.06;;;1.94;100.00
77147;BME280;66121;52.584;9.694;2024-01-06T06:38:36;100132.22;;;1.97;100.00
77147;BME280;66121;52.584;9.694;2024-01-06T06:41:01;100151.81;;;1.90;100.00
77147;BME280;66121;52.584;9.694;2024-01-06T06:43:27;100151.25;;;1.97;100.00
77147;BME280;66121;52.584;9.694;2024-01-06T06:45:53;100154.44;;;1.87;100.00
77147;BME280;66121;52.584;9.694;2024-01-06T06:48:18;100156.81;;;1.88;100.00
77147;BME280;66121;52.584;9.694;2024-01-06T06:50:43;100163.94;;;1.93;100.00
77147;BME280;66121;52.584;9.694;2024-01-06T06:53:09;100150.00;;;1.82;100.00
77147;BME280;66121;52.584;9.694;2024-01-06T06:55:35;100171.00;;;1.94;100.00
77147;BME280;66121;52.584;9.694;2024-01-06T06:58:02;100172.91;;;1.93;100.00
77147;BME280;66121;52.584;9.694;2024-01-06T07:00:28;100175.19;;;1.91;100.00
77147;BME280;66121;52.584;9.694;2024-01-06T07:02:53;100177.22;;;1.94;100.00
77147;BME280;66121;52.584;9.694;2024-01-06T07:05:18;100181.09;;;1.93;100.00
77147;BME280;66121;52.584;9.694;2024-01-06T07:07:44;100174.84;;;1.93;100.00
77147;BME280;66121;52.584;9.694;2024-01-06T07:10:12;100172.13;;;1.93;100.00
77147;BME280;66121;52.584;9.694;2024-01-06T07:12:37;100180.72;;;1.95;100.00
77147;BME280;66121;52.584;9.694;2024-01-06T07:15:03;100187.31;;;1.94;100.00
77147;BME280;66121;52.584;9.694;2024-01-06T07:17:28;100187.88;;;2.00;100.00
77147;BME280;66121;52.584;9.694;2024-01-06T07:19:54;100191.75;;;1.99;100.00
77147;BME280;66121;52.584;9.694;2024-01-06T07:22:19;100203.75;;;1.98;100.00
77147;BME280;66121;52.584;9.694;2024-01-06T07:24:45;100198.53;;;1.92;100.00
77147;BME280;66121;52.584;9.694;2024-01-06T07:27:11;100214.75;;;1.89;100.00
77147;BME280;66121;52.584;9.694;2024-01-06T07:29:36;100217.22;;;1.82;100.00
77147;BME280;66121;52.584;9.694;2024-01-06T07:32:03;100207.91;;;1.83;100.00
77147;BME280;66121;52.584;9.694;2024-01-06T07:34:28;100202.81;;;1.81;100.00
77147;BME280;66121;52.584;9.694;2024-01-06T07:36:53;100212.44;;;1.79;100.00
77147;BME280;66121;52.584;9.694;2024-01-06T07:39:19;100232.19;;;1.88;100.00
77147;BME280;66121;52.584;9.694;2024-01-06T07:41:44;100235.13;;;1.95;100.00
77147;BME280;66121;52.584;9.694;2024-01-06T07:44:12;100236.38;;;1.85;100.00
77147;BME280;66121;52.584;9.694;2024-01-06T07:46:38;100241.50;;;1.87;100.00
77147;BME280;66121;52.584;9.694;2024-01-06T07:49:05;100233.41;;;1.78;100.00
77147;BME280;66121;52.584;9.694;2024-01-06T07:51:30;100239.97;;;1.77;100.00
77147;BME280;66121;52.584;9.694;2024-01-06T07:53:56;100253.25;;;1.79;100.00
77147;BME280;66121;52.584;9.694;2024-01-06T07:56:21;100262.31;;;1.83;100.00
77147;BME280;66121;52.584;9.694;2024-01-06T07:58:46;100263.13;;;1.83;100.00
77147;BME280;66121;52.584;9.694;2024-01-06T08:01:12;100263.31;;;1.78;100.00
77147;BME280;66121;52.584;9.694;2024-01-06T08:03:38;100265.38;;;1.81;100.00
77147;BME280;66121;52.584;9.694;2024-01-06T08:06:03;100277.63;;;1.87;100.00
77147;BME280;66121;52.584;9.694;2024-01-06T08:08:29;100283.28;;;1.82;100.00
77147;BME280;66121;52.584;9.694;2024-01-06T08:10:54;100274.66;;;1.80;100.00
77147;BME280;66121;52.584;9.694;2024-01-06T08:13:20;100282.16;;;1.83;100.00
77147;BME280;66121;52.584;9.694;2024-01-06T08:15:45;100288.59;;;1.79;100.00
77147;BME280;66121;52.584;9.694;2024-01-06T08:18:10;100295.28;;;1.81;100.00
77147;BME280;66121;52.584;9.694;2024-01-06T08:20:36;100283.13;;;1.67;100.00
77147;BME280;66121;52.584;9.694;2024-01-06T08:23:01;100296.09;;;1.82;100.00
77147;BME280;66121;52.584;9.694;2024-01-06T08:25:26;100305.38;;;1.81;100.00
77147;BME280;66121;52.584;9.694;2024-01-06T08:27:52;100293.78;;;1.72;100.00
77147;BME280;66121;52.584;9.694;2024-01-06T08:30:17;100312.88;;;1.84;100.00
77147;BME280;66121;52.584;9.694;2024-01-06T08:32:43;100297.16;;;1.69;100.00
77147;BME280;66121;52.584;9.694;2024-01-06T08:35:09;100314.19;;;1.78;100.00
77147;BME280;66121;52.584;9.694;2024-01-06T08:37:34;100325.53;;;1.80;100.00
77147;BME280;66121;52.584;9.694;2024-01-06T08:39:59;100328.59;;;1.78;100.00
77147;BME280;66121;52.584;9.694;2024-01-06T08:42:25;100328.66;;;1.70;100.00
77147;BME280;66121;52.584;9.694;2024-01-06T08:44:51;100309.25;;;1.59;100.00
77147;BME280;66121;52.584;9.694;2024-01-06T08:47:16;100337.88;;;1.77;100.00
77147;BME280;66121;52.584;9.694;2024-01-06T08:49:42;100344.91;;;1.78;100.00
77147;BME280;66121;52.584;9.694;2024-01-06T08:52:07;100340.34;;;1.70;100.00
77147;BME280;66121;52.584;9.694;2024-01-06T08:54:32;100343.41;;;1.69;100.00
77147;BME280;66121;52.584;9.694;2024-01-06T08:56:58;100355.09;;;1.69;100.00
77147;BME280;66121;52.584;9.694;2024-01-06T08:59:23;100360.84;;;1.68;100.00
77147;BME280;66121;52.584;9.694;2024-01-06T09:01:48;100351.22;;;1.70;100.00
77147;BME280;66121;52.584;9.694;2024-01-06T09:04:14;100366.88;;;1.73;100.00
77147;BME280;66121;52.584;9.694;2024-01-06T09:06:40;100367.53;;;1.70;100.00
77147;BME280;66121;52.584;9.694;2024-01-06T09:09:06;100366.63;;;1.66;100.00
77147;BME280;66121;52.584;9.694;2024-01-06T09:11:33;100363.75;;;1.63;100.00
77147;BME280;66121;52.584;9.694;2024-01-06T09:13:58;100376.53;;;1.62;100.00
77147;BME280;66121;52.584;9.694;2024-01-06T09:16:23;100387.84;;;1.73;100.00
77147;BME280;66121;52.584;9.694;2024-01-06T09:18:49;100390.09;;;1.71;100.00
77147;BME280;66121;52.584;9.694;2024-01-06T09:21:14;100395.88;;;1.69;100.00
77147;BME280;66121;52.584;9.694;2024-01-06T09:23:40;100403.63;;;1.79;100.00
77147;BME280;66121;52.584;9.694;2024-01-06T09:26:05;100395.56;;;1.62;100.00
77147;BME280;66121;52.584;9.694;2024-01-06T09:28:31;100396.84;;;1.65;100.00
77147;BME280;66121;52.584;9.694;2024-01-06T09:30:56;100410.72;;;1.72;100.00
77147;BME280;66121;52.584;9.694;2024-01-06T09:33:22;100415.84;;;1.73;100.00
77147;BME280;66121;52.584;9.694;2024-01-06T09:35:48;100420.19;;;1.66;100.00
77147;BME280;66121;52.584;9.694;2024-01-06T09:38:13;100421.28;;;1.73;100.00
77147;BME280;66121;52.584;9.694;2024-01-06T09:40:43;100420.72;;;1.80;100.00
77147;BME280;66121;52.584;9.694;2024-01-06T09:43:10;100401.00;;;1.62;100.00
77147;BME280;66121;52.584;9.694;2024-01-06T09:45:35;100427.81;;;1.72;100.00
77147;BME280;66121;52.584;9.694;2024-01-06T09:48:15;100432.19;;;1.65;100.00
77147;BME280;66121;52.584;9.694;2024-01-06T09:50:43;100439.84;;;1.71;100.00
77147;BME280;66121;52.584;9.694;2024-01-06T09:53:11;100425.63;;;1.66;100.00
77147;BME280;66121;52.584;9.694;2024-01-06T09:55:37;100443.19;;;1.77;100.00
77147;BME280;66121;52.584;9.694;2024-01-06T09:58:04;100427.09;;;1.63;100.00
77147;BME280;66121;52.584;9.694;2024-01-06T10:00:30;100454.38;;;1.75;100.00
77147;BME280;66121;52.584;9.694;2024-01-06T10:02:55;100449.97;;;1.62;100.00
77147;BME280;66121;52.584;9.694;2024-01-06T10:05:21;100450.75;;;1.63;100.00
77147;BME280;66121;52.584;9.694;2024-01-06T10:07:47;100455.56;;;1.66;100.00
77147;BME280;66121;52.584;9.694;2024-01-06T10:10:13;100448.81;;;1.72;100.00
77147;BME280;66121;52.584;9.694;2024-01-06T10:12:40;100456.63;;;1.73;100.00
77147;BME280;66121;52.584;9.694;2024-01-06T10:15:10;100459.53;;;1.68;100.00
77147;BME280;66121;52.584;9.694;2024-01-06T10:17:38;100462.41;;;1.72;100.00
77147;BME280;66121;52.584;9.694;2024-01-06T10:20:12;100448.03;;;1.63;100.00
77147;BME280;66121;52.584;9.694;2024-01-06T10:22:40;100462.91;;;1.65;100.00
77147;BME280;66121;52.584;9.694;2024-01-06T10:25:07;100450.56;;;1.68;100.00
77147;BME280;66121;52.584;9.694;2024-01-06T10:27:40;100466.44;;;1.66;100.00
77147;BME280;66121;52.584;9.694;2024-01-06T10:30:07;100468.34;;;1.65;100.00
77147;BME280;66121;52.584;9.694;2024-01-06T10:32:33;100464.81;;;1.65;100.00
77147;BME280;66121;52.584;9.694;2024-01-06T10:34:59;100473.50;;;1.58;100.00
77147;BME280;66121;52.584;9.694;2024-01-06T10:37:26;100471.91;;;1.57;100.00
77147;BME280;66121;52.584;9.694;2024-01-06T10:40:11;100475.31;;;1.54;100.00
77147;BME280;66121;52.584;9.694;2024-01-06T10:42:37;100469.69;;;1.59;100.00
77147;BME280;66121;52.584;9.694;2024-01-06T10:45:06;100467.16;;;1.54;100.00
77147;BME280;66121;52.584;9.694;2024-01-06T10:47:34;100476.75;;;1.52;100.00
77147;BME280;66121;52.584;9.694;2024-01-06T10:49:59;100466.84;;;1.47;100.00
77147;BME280;66121;52.584;9.694;2024-01-06T10:52:27;100467.34;;;1.49;100.00
77147;BME280;66121;52.584;9.694;2024-01-06T10:54:54;100478.06;;;1.46;100.00
77147;BME280;66121;52.584;9.694;2024-01-06T10:57:20;100485.22;;;1.50;100.00
77147;BME280;66121;52.584;9.694;2024-01-06T10:59:48;100476.25;;;1.50;100.00
77147;BME280;66121;52.584;9.694;2024-01-06T11:02:15;100481.22;;;1.48;100.00
77147;BME280;66121;52.584;9.694;2024-01-06T11:04:43;100488.59;;;1.47;100.00
77147;BME280;66121;52.584;9.694;2024-01-06T11:07:09;100465.91;;;1.43;100.00
77147;BME280;66121;52.584;9.694;2024-01-06T11:09:37;100491.31;;;1.47;100.00
77147;BME280;66121;52.584;9.694;2024-01-06T11:12:05;100487.63;;;1.52;100.00
77147;BME280;66121;52.584;9.694;2024-01-06T11:14:36;100485.41;;;1.45;100.00
77147;BME280;66121;52.584;9.694;2024-01-06T11:17:03;100467.88;;;1.34;100.00
77147;BME280;66121;52.584;9.694;2024-01-06T11:22:20;100491.19;;;1.44;100.00
77147;BME280;66121;52.584;9.694;2024-01-06T11:24:53;100484.13;;;1.43;100.00
77147;BME280;66121;52.584;9.694;2024-01-06T11:27:25;100468.69;;;1.35;100.00
77147;BME280;66121;52.584;9.694;2024-01-06T11:29:58;100493.56;;;1.45;100.00
77147;BME280;66121;52.584;9.694;2024-01-06T11:32:28;100485.94;;;1.39;100.00
77147;BME280;66121;52.584;9.694;2024-01-06T11:34:55;100487.84;;;1.38;100.00
77147;BME280;66121;52.584;9.694;2024-01-06T11:39:51;100478.09;;;1.37;100.00
77147;BME280;66121;52.584;9.694;2024-01-06T11:42:16;100475.38;;;1.37;100.00
77147;BME280;66121;52.584;9.694;2024-01-06T11:44:45;100472.06;;;1.32;100.00
77147;BME280;66121;52.584;9.694;2024-01-06T11:47:15;100475.06;;;1.30;100.00
77147;BME280;66121;52.584;9.694;2024-01-06T11:49:44;100471.59;;;1.29;100.00
77147;BME280;66121;52.584;9.694;2024-01-06T11:52:09;100466.78;;;1.26;100.00
77147;BME280;66121;52.584;9.694;2024-01-06T11:54:35;100474.31;;;1.29;100.00
77147;BME280;66121;52.584;9.694;2024-01-06T11:57:00;100455.47;;;1.16;100.00
77147;BME280;66121;52.584;9.694;2024-01-06T11:59:26;100470.50;;;1.22;100.00
77147;BME280;66121;52.584;9.694;2024-01-06T12:01:52;100478.66;;;1.22;100.00
77147;BME280;66121;52.584;9.694;2024-01-06T12:04:17;100474.03;;;1.14;100.00
77147;BME280;66121;52.584;9.694;2024-01-06T12:06:43;100467.00;;;1.13;100.00
77147;BME280;66121;52.584;9.694;2024-01-06T12:09:12;100470.97;;;1.15;100.00
77147;BME280;66121;52.584;9.694;2024-01-06T12:11:41;100480.41;;;1.18;100.00
77147;BME280;66121;52.584;9.694;2024-01-06T12:14:10;100476.28;;;1.12;100.00
77147;BME280;66121;52.584;9.694;2024-01-06T12:16:36;100471.03;;;1.07;100.00
77147;BME280;66121;52.584;9.694;2024-01-06T12:19:01;100479.94;;;1.07;100.00
77147;BME280;66121;52.584;9.694;2024-01-06T12:21:29;100483.00;;;1.06;100.00
77147;BME280;66121;52.584;9.694;2024-01-06T12:23:54;100464.00;;;0.97;100.00
77147;BME280;66121;52.584;9.694;2024-01-06T12:26:36;100487.69;;;0.97;100.00
77147;BME280;66121;52.584;9.694;2024-01-06T12:29:04;100484.16;;;0.96;100.00
77147;BME280;66121;52.584;9.694;2024-01-06T12:31:29;100488.28;;;1.02;100.00
77147;BME280;66121;52.584;9.694;2024-01-06T12:33:55;100489.25;;;0.98;100.00
77147;BME280;66121;52.584;9.694;2024-01-06T12:36:21;100503.34;;;0.91;100.00
77147;BME280;66121;52.584;9.694;2024-01-06T12:38:46;100498.53;;;0.97;100.00
77147;BME280;66121;52.584;9.694;2024-01-06T12:41:12;100504.75;;;0.97;100.00
77147;BME280;66121;52.584;9.694;2024-01-06T12:43:37;100506.06;;;0.91;100.00
77147;BME280;66121;52.584;9.694;2024-01-06T12:46:03;100503.81;;;0.93;100.00
77147;BME280;66121;52.584;9.694;2024-01-06T12:48:28;100506.06;;;0.91;100.00
77147;BME280;66121;52.584;9.694;2024-01-06T12:50:54;100502.25;;;0.92;100.00